createdAt,value
2022-12-24T00:00:15.359Z,24.40
2022-12-24T00:03:18.937Z,24.40
2022-12-24T00:06:27.411Z,24.40
2022-12-24T00:09:28.374Z,24.40
2022-12-24T00:12:37.040Z,24.40
2022-12-24T00:15:40.435Z,24.40
2022-12-24T00:18:47.198Z,24.40
2022-12-24T00:21:54.634Z,24.30
2022-12-24T00:25:06.671Z,24.40
2022-12-24T00:28:16.542Z,24.40
2022-12-24T00:31:21.704Z,24.40
2022-12-24T00:34:22.593Z,24.40
2022-12-24T00:37:27.716Z,24.40
2022-12-24T00:40:30.841Z,24.40
2022-12-24T00:43:46.675Z,24.40
2022-12-24T00:46:51.786Z,24.40
2022-12-24T00:49:54.921Z,24.40
2022-12-24T00:53:06.960Z,24.40
2022-12-24T00:56:12.994Z,24.30
2022-12-24T00:59:22.800Z,24.30
2022-12-24T01:02:47.066Z,24.40
2022-12-24T01:06:16.863Z,24.40
2022-12-24T01:09:37.115Z,24.40
2022-12-24T01:13:01.160Z,24.30
2022-12-24T01:16:31.245Z,24.40
2022-12-24T01:19:52.981Z,24.40
2022-12-24T01:23:25.262Z,24.40
2022-12-24T01:26:47.035Z,24.30
2022-12-24T01:30:17.074Z,24.40
2022-12-24T01:33:47.112Z,24.30
2022-12-24T01:37:11.130Z,24.30
2022-12-24T01:40:37.459Z,24.30
2022-12-24T01:43:59.215Z,24.40
2022-12-24T01:47:31.560Z,24.30
2022-12-24T01:50:49.584Z,24.40
2022-12-24T01:54:11.282Z,24.30
2022-12-24T01:57:35.299Z,24.40
2022-12-24T02:00:59.345Z,24.30
2022-12-24T02:04:14.591Z,24.30
2022-12-24T02:07:26.340Z,24.30
2022-12-24T02:10:37.601Z,24.40
2022-12-24T02:13:44.382Z,24.30
2022-12-24T02:17:01.870Z,24.40
2022-12-24T02:20:43.575Z,24.30
2022-12-24T02:24:13.930Z,24.30
2022-12-24T02:27:43.649Z,24.30
2022-12-24T02:31:08.081Z,24.40
2022-12-24T02:34:19.713Z,24.30
2022-12-24T02:37:19.753Z,24.30
2022-12-24T02:40:31.795Z,24.30
2022-12-24T02:43:44.151Z,24.30
2022-12-24T02:46:49.968Z,24.40
2022-12-24T02:49:55.905Z,24.30
2022-12-24T02:53:07.928Z,24.40
2022-12-24T02:56:31.988Z,24.40
2022-12-24T02:59:55.996Z,24.40
2022-12-24T03:03:26.041Z,24.30
2022-12-24T03:06:44.078Z,24.30
2022-12-24T03:09:50.110Z,24.30
2022-12-24T03:13:02.139Z,24.30
2022-12-24T03:16:08.212Z,24.30
2022-12-24T03:19:20.203Z,24.30
2022-12-24T03:22:32.285Z,24.30
2022-12-24T03:25:44.597Z,24.30
2022-12-24T03:28:56.612Z,24.30
2022-12-24T03:32:14.341Z,24.30
2022-12-24T03:35:32.373Z,24.30
2022-12-24T03:38:38.410Z,24.30
2022-12-24T03:41:44.756Z,24.30
2022-12-24T03:44:50.481Z,24.30
2022-12-24T03:47:56.833Z,24.30
2022-12-24T03:51:14.872Z,24.30
2022-12-24T03:54:20.898Z,24.30
2022-12-24T03:57:56.932Z,24.30
2022-12-24T04:33:38.974Z,24.30
2022-12-24T05:01:28.248Z,24.30
2022-12-24T05:05:16.046Z,24.20
2022-12-24T05:09:09.906Z,24.30
2022-12-24T05:44:30.670Z,24.20
2022-12-24T05:47:36.944Z,24.20
2022-12-24T05:50:58.561Z,24.20
2022-12-24T06:02:45.787Z,24.20
2022-12-24T06:10:45.820Z,24.20
2022-12-24T06:34:34.111Z,24.20
2022-12-24T06:45:58.225Z,24.20
2022-12-24T06:53:16.283Z,24.20
2022-12-24T07:08:40.455Z,24.20
2022-12-24T07:11:58.162Z,24.20
2022-12-24T07:15:04.549Z,24.20
2022-12-24T07:25:52.633Z,24.20
2022-12-24T07:29:16.669Z,24.20
2022-12-24T07:36:10.734Z,24.20
2022-12-24T07:39:52.775Z,24.20
2022-12-24T07:43:22.498Z,24.20
2022-12-24T07:46:46.946Z,24.20
2022-12-24T07:57:22.963Z,24.20
2022-12-24T08:01:05.058Z,24.10
2022-12-24T08:04:41.053Z,24.20
2022-12-24T08:08:05.096Z,24.20
2022-12-24T08:11:44.706Z,24.20
2022-12-24T08:15:28.939Z,24.20
2022-12-24T08:22:29.241Z,24.20
2022-12-24T08:29:41.022Z,24.20
2022-12-24T08:33:35.355Z,24.20
2022-12-24T08:44:23.470Z,24.20
2022-12-24T08:47:47.191Z,24.20
2022-12-24T08:50:59.229Z,24.20
2022-12-24T08:54:05.572Z,24.30
2022-12-24T08:57:11.292Z,24.20
2022-12-24T09:00:35.650Z,24.20
2022-12-24T09:03:53.732Z,24.20
2022-12-24T09:07:17.722Z,24.20
2022-12-24T09:10:44.558Z,24.20
2022-12-24T09:14:11.784Z,24.20
2022-12-24T09:17:38.613Z,24.20
2022-12-24T09:20:59.867Z,24.20
2022-12-24T09:24:23.878Z,24.30
2022-12-24T09:27:47.935Z,24.20
2022-12-24T09:31:14.766Z,24.30
2022-12-24T09:34:38.786Z,24.40
2022-12-24T09:38:00.039Z,24.50
2022-12-24T10:10:15.081Z,24.70
2022-12-24T10:13:46.314Z,24.60
2022-12-24T10:17:21.153Z,24.70
2022-12-24T10:20:59.134Z,24.70
2022-12-24T10:24:22.197Z,24.70
2022-12-24T10:27:57.248Z,24.70
2022-12-24T10:31:28.314Z,24.70
2022-12-24T10:41:51.383Z,24.70
2022-12-24T10:45:27.458Z,24.70
2022-12-24T10:49:09.474Z,24.70
2022-12-24T10:52:40.484Z,24.70
2022-12-24T10:56:03.545Z,24.60
2022-12-24T10:59:34.562Z,24.60
2022-12-24T11:06:47.622Z,24.60
2022-12-24T11:10:15.669Z,24.60
2022-12-24T11:13:51.756Z,24.60
2022-12-24T11:17:22.773Z,24.60
2022-12-24T11:24:34.887Z,24.60
2022-12-24T11:28:16.886Z,24.60
2022-12-24T11:31:53.045Z,24.60
2022-12-24T11:35:16.947Z,24.60
2022-12-24T11:38:57.960Z,24.60
2022-12-24T11:42:47.068Z,24.60
2022-12-24T11:46:23.110Z,24.60
2022-12-24T11:50:17.180Z,24.60
2022-12-24T11:53:47.168Z,24.60
2022-12-24T11:57:11.199Z,24.50
2022-12-24T12:00:47.253Z,24.60
2022-12-24T12:04:16.208Z,24.60
2022-12-24T12:07:46.203Z,24.60
2022-12-24T12:11:05.334Z,24.60
2022-12-24T12:14:23.377Z,24.60
2022-12-24T12:17:53.428Z,24.60
2022-12-24T12:21:22.304Z,24.60
2022-12-24T12:24:47.490Z,24.60
2022-12-24T12:28:11.541Z,24.60
2022-12-24T12:31:45.373Z,24.50
2022-12-24T12:35:23.618Z,24.60
2022-12-24T12:38:46.457Z,24.60
2022-12-24T12:42:11.671Z,24.60
2022-12-24T12:45:40.548Z,24.60
2022-12-24T13:05:17.937Z,24.60
2022-12-24T13:17:27.728Z,24.60
2022-12-24T13:21:06.117Z,24.60
2022-12-24T13:24:31.958Z,24.60
2022-12-24T13:28:06.201Z,24.60
2022-12-24T13:31:19.198Z,24.60
2022-12-24T13:39:07.231Z,24.60
2022-12-24T13:42:37.255Z,24.60
2022-12-24T13:46:19.319Z,24.60
2022-12-24T13:53:31.366Z,24.60
2022-12-24T13:56:54.543Z,24.60
2022-12-24T14:00:25.392Z,24.60
2022-12-24T14:04:19.427Z,24.60
2022-12-24T14:07:55.460Z,24.50
2022-12-24T15:52:14.626Z,24.40
2022-12-24T15:55:56.777Z,24.40
2022-12-24T15:59:08.361Z,24.40
2022-12-24T16:02:50.648Z,24.40
2022-12-24T16:06:26.527Z,24.40
2022-12-24T16:10:26.594Z,24.30
2022-12-24T16:14:02.643Z,24.40
2022-12-24T16:17:56.644Z,24.40
2022-12-24T16:21:50.692Z,24.40
2022-12-24T16:25:44.718Z,24.40
2022-12-24T16:29:26.766Z,24.30
2022-12-24T16:33:14.801Z,24.30
2022-12-24T16:36:56.839Z,24.30
2022-12-24T16:40:27.973Z,24.30
2022-12-24T16:44:08.916Z,24.30
2022-12-24T16:47:44.949Z,24.30
2022-12-24T16:51:08.971Z,24.30
2022-12-24T16:54:45.002Z,24.30
2022-12-24T16:58:33.164Z,24.30
2022-12-24T17:01:57.174Z,24.30
2022-12-24T17:05:15.097Z,24.30
2022-12-24T17:08:20.822Z,24.30
2022-12-24T17:11:32.837Z,24.30
2022-12-24T17:14:50.852Z,24.30
2022-12-24T17:18:14.883Z,24.30
2022-12-24T17:21:40.525Z,24.20
2022-12-24T17:24:58.576Z,24.30
2022-12-24T17:28:27.011Z,24.30
2022-12-24T17:31:52.641Z,24.20
2022-12-24T17:35:21.099Z,24.30
2022-12-24T17:38:45.107Z,24.20
2022-12-24T17:42:10.721Z,24.20
2022-12-24T17:45:51.198Z,24.20
2022-12-24T17:49:15.218Z,24.20
2022-12-24T17:52:39.254Z,24.20
2022-12-24T17:56:04.864Z,24.20
2022-12-24T17:59:33.356Z,24.20
2022-12-24T18:03:09.495Z,24.20
2022-12-24T18:06:40.453Z,24.20
2022-12-24T18:10:09.441Z,24.20
2022-12-24T18:13:39.480Z,24.20
2022-12-24T18:17:09.512Z,24.20
2022-12-24T18:20:47.068Z,24.20
2022-12-24T18:24:15.586Z,24.20
2022-12-24T18:27:45.636Z,24.20
2022-12-24T18:31:09.717Z,24.20
2022-12-24T18:34:33.720Z,24.20
2022-12-24T18:38:09.745Z,24.20
2022-12-24T18:41:35.319Z,24.20
2022-12-24T18:45:03.810Z,24.10
2022-12-24T18:48:27.859Z,24.20
2022-12-24T18:51:39.881Z,24.10
2022-12-24T18:55:09.941Z,24.10
2022-12-24T18:58:35.389Z,24.20
2022-12-24T19:01:59.626Z,24.20
2022-12-24T19:05:28.049Z,24.10
2022-12-24T19:08:59.753Z,24.10
2022-12-24T19:12:40.150Z,24.10
2022-12-24T19:16:10.251Z,24.10
2022-12-24T19:19:40.207Z,24.10
2022-12-24T19:23:04.643Z,24.10
2022-12-24T19:26:28.294Z,24.10
2022-12-24T19:29:58.513Z,24.10
2022-12-24T19:33:22.375Z,24.10
2022-12-24T19:36:52.410Z,24.10
2022-12-24T19:40:17.763Z,24.10
2022-12-24T19:43:46.490Z,24.10
2022-12-24T20:48:22.003Z,24.10
2022-12-24T21:15:30.344Z,24.10
2022-12-24T21:43:12.630Z,24.10
2022-12-24T22:20:19.008Z,24.00
2022-12-24T22:24:43.047Z,24.10
2022-12-24T22:56:41.218Z,24.00
2022-12-24T23:28:37.623Z,24.00
